createdAt,value
2019-04-24T00:00:39.418Z,17.19
2019-04-24T00:01:31.080Z,17.19
2019-04-24T00:03:36.892Z,17.31
2019-04-24T00:04:39.992Z,17.25
2019-04-24T00:06:00.820Z,17.19
2019-04-24T00:06:20.074Z,17.06
2019-04-24T00:07:19.058Z,17.06
2019-04-24T00:09:27.891Z,17.06
2019-04-24T00:11:37.347Z,17.19
2019-04-24T00:12:32.543Z,17.25
2019-04-24T00:16:36.863Z,16.81
2019-04-24T00:17:26.945Z,16.88
2019-04-24T00:19:25.789Z,16.88
2019-04-24T00:20:34.168Z,16.75
2019-04-24T00:22:54.487Z,16.88
2019-04-24T00:23:24.793Z,17.00
2019-04-24T00:24:24.077Z,16.81
2019-04-24T00:25:22.719Z,16.75
2019-04-24T00:26:30.096Z,16.62
2019-04-24T00:28:31.650Z,16.88
2019-04-24T00:30:38.315Z,16.88
2019-04-24T00:31:24.085Z,16.62
2019-04-24T00:32:21.336Z,16.50
2019-04-24T00:33:40.070Z,16.50
2019-04-24T00:35:35.866Z,16.50
2019-04-24T00:37:29.213Z,16.75
2019-04-24T00:38:39.819Z,16.62
2019-04-24T00:39:33.367Z,16.44
2019-04-24T00:41:34.489Z,16.81
2019-04-24T00:42:20.771Z,16.69
2019-04-24T00:43:54.672Z,16.69
2019-04-24T00:44:25.363Z,16.50
2019-04-24T00:45:36.514Z,16.69
2019-04-24T00:46:39.188Z,16.75
2019-04-24T00:47:38.239Z,16.62
2019-04-24T00:48:35.354Z,16.69
2019-04-24T00:51:36.862Z,16.69
2019-04-24T00:52:29.932Z,16.38
2019-04-24T00:53:51.566Z,16.25
2019-04-24T00:55:34.440Z,16.44
2019-04-24T00:56:29.853Z,16.56
2019-04-24T00:57:38.976Z,16.38
2019-04-24T00:58:33.740Z,16.12
2019-04-24T01:00:40.456Z,15.88
2019-04-24T01:05:29.903Z,15.69
2019-04-24T01:06:33.684Z,15.94
2019-04-24T01:07:40.775Z,16.12
2019-04-24T01:08:27.493Z,16.12
2019-04-24T01:09:37.365Z,16.38
2019-04-24T01:10:24.612Z,16.31
2019-04-24T01:11:28.254Z,16.44
2019-04-24T01:12:42.426Z,16.31
2019-04-24T01:13:31.025Z,16.19
2019-04-24T01:14:17.145Z,16.31
2019-04-24T01:15:32.969Z,16.19
2019-04-24T01:16:32.873Z,16.31
2019-04-24T01:17:33.289Z,16.19
2019-04-24T01:18:35.286Z,16.25
2019-04-24T01:19:27.029Z,16.25
2019-04-24T01:20:39.923Z,16.19
2019-04-24T01:21:41.289Z,16.25
2019-04-24T01:24:35.885Z,16.12
2019-04-24T01:27:45.421Z,16.25
2019-04-24T01:28:29.581Z,16.31
2019-04-24T01:31:22.485Z,16.31
2019-04-24T01:32:42.002Z,16.31
2019-04-24T01:33:33.218Z,16.31
2019-04-24T01:36:38.015Z,16.31
2019-04-24T01:38:28.687Z,16.25
2019-04-24T01:41:32.799Z,16.38
2019-04-24T01:42:32.315Z,16.25
2019-04-24T01:43:26.594Z,16.31
2019-04-24T01:44:34.031Z,16.38
2019-04-24T01:45:36.045Z,16.25
2019-04-24T01:47:37.336Z,16.25
2019-04-24T01:48:35.682Z,16.06
2019-04-24T01:49:45.133Z,15.88
2019-04-24T01:50:32.586Z,15.81
2019-04-24T01:51:38.947Z,15.88
2019-04-24T01:52:47.705Z,16.06
2019-04-24T01:53:23.081Z,15.94
2019-04-24T01:54:43.062Z,15.88
2019-04-24T01:55:17.877Z,15.94
2019-04-24T01:56:37.995Z,15.69
2019-04-24T01:57:41.093Z,15.69
2019-04-24T01:58:31.946Z,15.69
2019-04-24T02:00:43.153Z,15.75
2019-04-24T02:01:21.123Z,15.69
2019-04-24T02:03:28.045Z,15.69
2019-04-24T02:05:19.652Z,15.88
2019-04-24T02:07:38.816Z,16.00
2019-04-24T02:08:32.354Z,15.94
2019-04-24T02:09:42.554Z,15.94
2019-04-24T02:10:47.121Z,15.81
2019-04-24T02:11:40.552Z,15.81
2019-04-24T02:12:47.454Z,15.75
2019-04-24T02:14:37.516Z,15.81
2019-04-24T02:16:35.344Z,15.75
2019-04-24T02:19:22.336Z,15.69
2019-04-24T02:20:36.611Z,15.69
2019-04-24T02:22:31.079Z,15.62
2019-04-24T02:23:32.826Z,15.62
2019-04-24T02:25:41.784Z,15.31
2019-04-24T02:26:31.303Z,15.19
2019-04-24T02:27:43.264Z,15.25
2019-04-24T02:29:29.478Z,15.12
2019-04-24T02:31:38.997Z,15.25
2019-04-24T02:34:39.452Z,15.25
2019-04-24T02:35:46.425Z,15.38
2019-04-24T02:41:57.139Z,15.38
2019-04-24T02:42:48.889Z,15.25
2019-04-24T02:44:56.336Z,15.31
2019-04-24T02:46:30.943Z,15.31
2019-04-24T02:47:48.141Z,15.38
2019-04-24T02:49:05.203Z,15.38
2019-04-24T02:49:51.746Z,15.44
2019-04-24T02:50:38.407Z,15.31
2019-04-24T02:51:42.029Z,15.25
2019-04-24T02:52:37.804Z,15.38
2019-04-24T02:55:20.708Z,15.19
2019-04-24T02:56:43.415Z,15.31
2019-04-24T02:59:30.380Z,15.31
2019-04-24T03:01:32.224Z,15.19
2019-04-24T03:02:53.630Z,15.06
2019-04-24T03:03:31.931Z,15.00
2019-04-24T03:07:58.342Z,15.25
2019-04-24T03:11:27.829Z,15.31
2019-04-24T03:15:33.697Z,15.56
2019-04-24T03:17:07.888Z,15.50
2019-04-24T03:17:37.189Z,15.38
2019-04-24T03:19:47.102Z,15.31
2019-04-24T03:20:56.951Z,15.06
2019-04-24T03:21:51.411Z,14.88
2019-04-24T03:22:33.971Z,14.81
2019-04-24T03:23:39.606Z,14.81
2019-04-24T03:26:19.258Z,14.88
2019-04-24T03:27:08.917Z,14.75
2019-04-24T03:28:27.724Z,14.75
2019-04-24T03:33:06.749Z,14.56
2019-04-24T03:34:15.992Z,14.62
2019-04-24T03:42:16.931Z,15.25
2019-04-24T03:44:18.681Z,15.38
2019-04-24T03:45:44.193Z,15.50
2019-04-24T03:49:47.682Z,15.56
2019-04-24T03:51:26.379Z,15.62
2019-04-24T03:52:35.757Z,15.50
2019-04-24T03:54:48.819Z,15.38
2019-04-24T03:56:34.378Z,15.56
2019-04-24T03:58:50.574Z,15.38
2019-04-24T03:59:37.714Z,15.38
2019-04-24T04:01:51.673Z,15.25
2019-04-24T04:03:40.087Z,15.12
2019-04-24T04:04:31.509Z,15.25
2019-04-24T04:05:28.557Z,15.19
2019-04-24T04:06:49.426Z,15.06
2019-04-24T04:07:40.033Z,15.06
2019-04-24T04:09:38.024Z,15.00
2019-04-24T04:10:41.604Z,15.06
2019-04-24T04:11:54.431Z,14.94
2019-04-24T04:13:38.868Z,14.81
2019-04-24T04:14:55.062Z,14.75
2019-04-24T04:19:43.104Z,14.69
2019-04-24T04:20:45.986Z,14.62
2019-04-24T04:21:43.987Z,14.50
2019-04-24T04:23:03.638Z,14.62
2019-04-24T04:23:53.816Z,14.56
2019-04-24T04:24:39.945Z,14.56
2019-04-24T04:27:46.719Z,14.44
2019-04-24T04:28:59.072Z,14.44
2019-04-24T04:34:30.380Z,14.69
2019-04-24T04:36:48.170Z,14.75
2019-04-24T04:41:44.359Z,14.62
2019-04-24T04:42:57.993Z,14.62
2019-04-24T04:43:55.940Z,14.69
2019-04-24T04:44:44.108Z,14.69
2019-04-24T04:45:55.917Z,14.88
2019-04-24T04:47:24.082Z,14.94
2019-04-24T04:49:55.110Z,14.69
2019-04-24T04:50:49.897Z,14.75
2019-04-24T04:52:59.070Z,14.88
2019-04-24T04:53:55.068Z,14.81
2019-04-24T04:55:31.614Z,14.88
2019-04-24T04:56:36.574Z,15.00
2019-04-24T04:57:33.546Z,14.94
2019-04-24T05:02:38.921Z,15.12
2019-04-24T05:03:41.331Z,15.19
2019-04-24T05:05:41.117Z,15.44
2019-04-24T05:07:02.236Z,15.62
2019-04-24T05:07:46.446Z,15.69
2019-04-24T05:09:49.419Z,15.94
2019-04-24T05:10:28.137Z,16.06
2019-04-24T05:12:44.820Z,16.62
2019-04-24T05:13:34.358Z,17.06
2019-04-24T05:14:53.257Z,17.62
2019-04-24T05:15:39.579Z,18.00
2019-04-24T05:18:38.195Z,18.88
2019-04-24T05:19:32.452Z,19.19
2019-04-24T05:20:38.463Z,19.62
2019-04-24T05:23:52.505Z,20.44
2019-04-24T05:24:38.868Z,20.94
2019-04-24T05:26:47.273Z,21.62
2019-04-24T05:27:32.836Z,21.94
2019-04-24T05:29:31.797Z,22.50
2019-04-24T05:30:36.870Z,22.56
2019-04-24T05:31:38.036Z,22.81
2019-04-24T05:33:40.130Z,23.06
2019-04-24T05:35:28.459Z,23.19
2019-04-24T05:37:46.808Z,23.69
2019-04-24T05:38:31.937Z,23.81
2019-04-24T05:39:35.793Z,23.94
2019-04-24T05:40:43.663Z,24.00
2019-04-24T05:41:37.110Z,24.31
2019-04-24T05:42:46.482Z,24.12
2019-04-24T05:44:30.799Z,23.62
2019-04-24T05:45:37.985Z,23.88
2019-04-24T05:46:38.710Z,23.94
2019-04-24T05:48:43.243Z,23.88
2019-04-24T05:50:41.187Z,23.44
2019-04-24T05:51:27.581Z,23.44
2019-04-24T05:52:46.991Z,23.56
2019-04-24T05:55:49.126Z,23.50
2019-04-24T05:56:41.256Z,23.62
2019-04-24T05:59:40.588Z,23.69
2019-04-24T06:00:42.551Z,23.62
2019-04-24T06:01:54.381Z,23.56
2019-04-24T06:04:43.552Z,23.38
2019-04-24T06:05:46.078Z,23.44
2019-04-24T06:08:30.230Z,23.38
2019-04-24T06:09:34.583Z,23.12
2019-04-24T06:19:42.028Z,21.75
2019-04-24T06:21:22.783Z,21.56
2019-04-24T06:22:42.149Z,21.50
2019-04-24T06:23:59.047Z,21.56
2019-04-24T06:25:46.696Z,21.56
2019-04-24T06:26:38.896Z,21.69
2019-04-24T06:27:37.888Z,21.81
2019-04-24T06:29:41.553Z,22.25
2019-04-24T06:31:40.233Z,22.25
2019-04-24T06:32:34.189Z,22.38
2019-04-24T06:33:49.108Z,22.50
2019-04-24T06:34:28.346Z,22.69
2019-04-24T06:40:49.811Z,23.00
2019-04-24T06:42:40.991Z,22.81
2019-04-24T06:43:32.877Z,22.81
2019-04-24T06:45:36.784Z,22.75
2019-04-24T06:46:38.945Z,22.81
2019-04-24T06:47:43.151Z,22.81
2019-04-24T06:48:33.139Z,23.00
2019-04-24T06:49:14.057Z,23.12
2019-04-24T06:50:48.766Z,23.25
2019-04-24T06:51:51.300Z,23.44
2019-04-24T06:52:51.413Z,23.56
2019-04-24T06:53:23.341Z,23.56
2019-04-24T06:54:34.541Z,23.69
2019-04-24T06:55:43.379Z,23.88
2019-04-24T06:56:51.239Z,23.94
2019-04-24T06:57:26.610Z,24.06
2019-04-24T06:58:30.653Z,24.31
2019-04-24T07:00:48.589Z,24.62
2019-04-24T07:01:20.747Z,24.62
2019-04-24T07:02:37.440Z,24.62
2019-04-24T07:03:46.886Z,24.69
2019-04-24T07:05:34.562Z,24.94
2019-04-24T07:06:38.177Z,25.12
2019-04-24T07:08:36.702Z,25.56
2019-04-24T07:09:45.093Z,25.75
2019-04-24T07:10:39.918Z,25.81
2019-04-24T07:12:34.917Z,26.12
2019-04-24T07:13:53.644Z,26.19
2019-04-24T07:14:31.943Z,26.31
2019-04-24T07:15:46.503Z,26.44
2019-04-24T07:16:37.030Z,26.50
2019-04-24T07:17:38.134Z,26.69
2019-04-24T07:18:29.575Z,26.69
2019-04-24T07:19:42.296Z,26.81
2019-04-24T07:21:27.501Z,27.06
2019-04-24T07:22:21.948Z,27.19
2019-04-24T07:28:40.026Z,27.31
2019-04-24T07:30:29.827Z,27.44
2019-04-24T07:31:40.547Z,27.44
2019-04-24T07:32:41.810Z,27.50
2019-04-24T07:33:38.140Z,27.56
2019-04-24T07:34:38.986Z,27.69
2019-04-24T07:35:45.068Z,27.75
2019-04-24T07:37:38.353Z,27.94
2019-04-24T07:38:32.725Z,28.12
2019-04-24T07:40:42.799Z,28.38
2019-04-24T07:42:24.072Z,28.44
2019-04-24T07:43:39.997Z,28.50
2019-04-24T07:44:19.661Z,28.62
2019-04-24T07:45:39.595Z,28.69
2019-04-24T07:46:23.873Z,28.75
2019-04-24T07:48:41.816Z,29.00
2019-04-24T07:50:51.013Z,29.12
2019-04-24T07:51:45.691Z,29.12
2019-04-24T07:54:45.681Z,28.69
2019-04-24T07:55:42.648Z,28.56
2019-04-24T07:56:31.813Z,28.50
2019-04-24T07:58:49.066Z,28.25
2019-04-24T07:59:57.239Z,28.19
2019-04-24T08:02:25.406Z,27.94
2019-04-24T08:03:41.377Z,27.81
2019-04-24T08:04:43.518Z,27.62
2019-04-24T08:05:31.582Z,27.50
2019-04-24T08:06:31.870Z,27.56
2019-04-24T08:07:39.412Z,27.56
2019-04-24T08:08:43.796Z,27.31
2019-04-24T08:10:00.810Z,27.31
2019-04-24T08:10:30.309Z,27.19
2019-04-24T08:11:44.512Z,27.06
2019-04-24T08:13:23.166Z,26.94
2019-04-24T08:15:31.788Z,26.62
2019-04-24T08:16:31.602Z,26.31
2019-04-24T08:17:45.257Z,26.31
2019-04-24T08:18:27.588Z,26.44
2019-04-24T08:19:51.005Z,26.44
2019-04-24T08:20:44.026Z,26.44
2019-04-24T08:21:37.544Z,26.38
2019-04-24T08:22:34.967Z,26.50
2019-04-24T08:24:55.659Z,26.50
2019-04-24T08:25:33.230Z,26.25
2019-04-24T08:26:39.814Z,26.12
2019-04-24T08:28:38.892Z,26.19
2019-04-24T08:30:42.195Z,26.12
2019-04-24T08:31:30.042Z,26.12
2019-04-24T08:33:51.667Z,25.81
2019-04-24T08:35:48.548Z,25.94
2019-04-24T08:36:28.096Z,25.88
2019-04-24T08:37:46.103Z,25.81
2019-04-24T08:40:39.450Z,25.94
2019-04-24T08:41:29.126Z,25.94
2019-04-24T08:42:24.674Z,26.00
2019-04-24T08:43:36.297Z,26.06
2019-04-24T08:44:48.057Z,26.06
2019-04-24T08:45:15.620Z,26.00
2019-04-24T08:46:41.504Z,26.00
2019-04-24T08:47:43.754Z,26.06
2019-04-24T08:48:53.869Z,26.12
2019-04-24T08:49:41.534Z,26.19
2019-04-24T08:51:01.338Z,25.94
2019-04-24T08:51:27.933Z,25.75
2019-04-24T08:53:30.371Z,25.69
2019-04-24T08:54:27.153Z,25.75
2019-04-24T08:55:34.265Z,25.69
2019-04-24T08:56:26.340Z,25.69
2019-04-24T08:57:51.201Z,25.69
2019-04-24T08:59:53.997Z,25.69
2019-04-24T09:00:41.079Z,25.88
2019-04-24T09:01:43.737Z,26.06
2019-04-24T09:04:49.380Z,26.25
2019-04-24T09:05:42.153Z,26.25
2019-04-24T09:06:35.277Z,26.25
2019-04-24T09:07:48.554Z,26.25
2019-04-24T09:08:40.435Z,26.44
2019-04-24T09:09:34.614Z,26.38
2019-04-24T09:10:53.115Z,26.38
2019-04-24T09:12:49.854Z,26.19
2019-04-24T09:14:33.081Z,26.19
2019-04-24T09:16:28.564Z,26.25
2019-04-24T09:17:22.715Z,26.19
2019-04-24T09:18:40.189Z,26.19
2019-04-24T09:20:43.565Z,25.88
2019-04-24T09:25:25.718Z,25.94
2019-04-24T09:27:38.813Z,25.94
2019-04-24T09:28:47.980Z,26.06
2019-04-24T09:30:22.131Z,25.94
2019-04-24T09:31:24.275Z,26.00
2019-04-24T09:32:42.716Z,25.88
2019-04-24T09:33:21.462Z,25.94
2019-04-24T09:34:44.656Z,25.88
2019-04-24T09:36:00.037Z,25.81
2019-04-24T09:37:38.726Z,25.69
2019-04-24T09:39:05.797Z,25.56
2019-04-24T09:39:41.901Z,25.56
2019-04-24T09:40:57.271Z,25.75
2019-04-24T09:41:51.261Z,25.75
2019-04-24T09:43:37.525Z,25.56
2019-04-24T09:44:40.997Z,25.44
2019-04-24T09:47:44.238Z,25.69
2019-04-24T09:48:29.916Z,25.75
2019-04-24T09:49:21.110Z,25.69
2019-04-24T09:50:44.801Z,25.62
2019-04-24T09:51:36.689Z,25.56
2019-04-24T09:52:48.484Z,25.50
2019-04-24T09:54:37.774Z,25.69
2019-04-24T09:56:46.033Z,25.56
2019-04-24T09:59:33.685Z,25.88
2019-04-24T10:00:54.805Z,25.81
2019-04-24T10:01:40.742Z,25.81
2019-04-24T10:02:30.589Z,25.88
2019-04-24T10:04:46.461Z,25.69
2019-04-24T10:05:20.150Z,25.69
2019-04-24T10:07:33.246Z,25.75
2019-04-24T10:08:34.264Z,25.88
2019-04-24T10:10:36.751Z,25.75
2019-04-24T10:11:49.880Z,25.75
2019-04-24T10:12:41.496Z,25.69
2019-04-24T10:13:34.799Z,25.62
2019-04-24T10:14:35.650Z,25.56
2019-04-24T10:16:45.336Z,25.50
2019-04-24T10:17:37.222Z,25.38
2019-04-24T10:18:50.982Z,25.31
2019-04-24T10:19:55.693Z,25.31
2019-04-24T10:21:26.949Z,25.31
2019-04-24T10:24:39.021Z,25.06
2019-04-24T10:26:33.126Z,25.25
2019-04-24T10:27:43.682Z,25.38
2019-04-24T10:28:28.064Z,25.44
2019-04-24T10:29:32.216Z,25.38
2019-04-24T10:30:42.349Z,25.44
2019-04-24T10:32:37.090Z,25.75
2019-04-24T10:33:39.766Z,25.75
2019-04-24T10:35:38.801Z,25.62
2019-04-24T10:36:39.821Z,25.50
2019-04-24T10:38:38.961Z,25.38
2019-04-24T10:40:30.142Z,25.38
2019-04-24T10:42:32.074Z,25.25
2019-04-24T10:43:24.467Z,25.25
2019-04-24T10:45:20.818Z,25.25
2019-04-24T10:48:28.536Z,25.62
2019-04-24T10:51:47.043Z,25.88
2019-04-24T10:52:34.782Z,26.00
2019-04-24T10:53:36.093Z,25.94
2019-04-24T10:54:37.994Z,26.00
2019-04-24T10:55:45.366Z,26.00
2019-04-24T10:56:35.792Z,26.06
2019-04-24T10:57:41.529Z,26.00
2019-04-24T10:58:33.974Z,26.00
2019-04-24T10:59:39.450Z,25.88
2019-04-24T11:00:40.128Z,26.00
2019-04-24T11:01:49.512Z,26.06
2019-04-24T11:03:49.506Z,26.12
2019-04-24T11:06:41.433Z,26.00
2019-04-24T11:07:44.636Z,25.81
2019-04-24T11:09:31.876Z,25.94
2019-04-24T11:10:41.404Z,25.94
2019-04-24T11:12:40.137Z,25.81
2019-04-24T11:13:38.129Z,25.88
2019-04-24T11:14:30.970Z,25.94
2019-04-24T11:16:48.707Z,26.12
2019-04-24T11:17:34.258Z,26.12
2019-04-24T11:18:29.054Z,26.19
2019-04-24T11:19:25.382Z,26.19
2019-04-24T11:20:42.099Z,26.25
2019-04-24T11:23:31.543Z,26.25
2019-04-24T11:24:29.464Z,26.25
2019-04-24T11:25:44.144Z,26.19
2019-04-24T11:26:33.701Z,26.12
2019-04-24T11:27:25.370Z,26.12
2019-04-24T11:30:28.291Z,26.25
2019-04-24T11:31:31.042Z,26.50
2019-04-24T11:32:36.541Z,26.44
2019-04-24T11:33:55.081Z,26.38
2019-04-24T11:34:53.333Z,26.50
2019-04-24T11:35:24.774Z,26.50
2019-04-24T11:36:44.321Z,26.56
2019-04-24T11:37:39.379Z,26.56
2019-04-24T11:38:39.955Z,26.81
2019-04-24T11:40:39.234Z,26.94
2019-04-24T11:41:30.992Z,26.88
2019-04-24T11:42:36.920Z,26.81
2019-04-24T11:43:37.336Z,26.81
2019-04-24T11:44:32.488Z,26.75
2019-04-24T11:46:56.227Z,26.75
2019-04-24T11:47:48.862Z,26.81
2019-04-24T11:48:39.395Z,26.94
2019-04-24T11:51:45.306Z,26.69
2019-04-24T11:53:21.508Z,26.62
2019-04-24T11:54:48.464Z,26.75
2019-04-24T11:55:37.092Z,26.75
2019-04-24T11:56:36.810Z,26.81
2019-04-24T11:57:55.142Z,26.88
2019-04-24T11:59:14.994Z,26.88
2019-04-24T12:02:32.045Z,26.81
2019-04-24T12:03:27.331Z,26.88
2019-04-24T12:06:29.691Z,27.19
2019-04-24T12:07:26.580Z,27.12
2019-04-24T12:08:37.330Z,27.12
2019-04-24T12:09:24.340Z,27.00
2019-04-24T12:10:31.043Z,26.94
2019-04-24T12:11:32.071Z,26.88
2019-04-24T12:12:31.704Z,26.88
2019-04-24T12:14:28.798Z,26.94
2019-04-24T12:15:38.771Z,26.88
2019-04-24T12:16:29.991Z,26.81
2019-04-24T12:17:33.136Z,26.94
2019-04-24T12:18:35.120Z,27.00
2019-04-24T12:19:35.405Z,27.06
2019-04-24T12:20:35.777Z,27.12
2019-04-24T12:21:35.665Z,27.00
2019-04-24T12:22:26.174Z,26.94
2019-04-24T12:24:24.955Z,27.06
2019-04-24T12:25:40.954Z,26.94
2019-04-24T12:26:36.836Z,26.88
2019-04-24T12:27:36.264Z,26.81
2019-04-24T12:30:40.279Z,26.94
2019-04-24T12:31:26.202Z,26.94
2019-04-24T12:32:25.166Z,26.88
2019-04-24T12:33:37.726Z,26.94
2019-04-24T12:34:37.331Z,27.06
2019-04-24T12:35:24.226Z,27.06
2019-04-24T12:38:39.991Z,26.94
2019-04-24T12:39:31.607Z,26.88
2019-04-24T12:40:32.786Z,26.81
2019-04-24T12:43:34.760Z,26.75
2019-04-24T12:44:27.914Z,26.62
2019-04-24T12:45:40.084Z,26.69
2019-04-24T12:48:38.995Z,26.62
2019-04-24T12:49:42.975Z,26.62
2019-04-24T12:50:33.581Z,26.62
2019-04-24T12:51:26.113Z,26.50
2019-04-24T12:52:27.400Z,26.56
2019-04-24T12:53:35.557Z,26.44
2019-04-24T12:55:33.790Z,26.50
2019-04-24T12:57:35.222Z,26.69
2019-04-24T12:59:34.258Z,26.75
2019-04-24T13:00:40.169Z,26.75
2019-04-24T13:01:35.146Z,27.00
2019-04-24T13:02:28.879Z,27.06
2019-04-24T13:05:34.619Z,27.00
2019-04-24T13:06:10.023Z,26.94
2019-04-24T13:07:29.382Z,26.94
2019-04-24T13:08:31.575Z,26.88
2019-04-24T13:10:37.726Z,26.94
2019-04-24T13:13:30.592Z,27.25
2019-04-24T13:14:36.876Z,27.56
2019-04-24T13:16:46.165Z,27.69
2019-04-24T13:17:40.154Z,27.62
2019-04-24T13:18:32.143Z,27.62
2019-04-24T13:20:08.789Z,27.56
2019-04-24T13:21:11.452Z,27.44
2019-04-24T13:22:09.734Z,27.38
2019-04-24T13:23:17.891Z,27.19
2019-04-24T13:24:23.068Z,27.06
2019-04-24T13:25:31.497Z,26.88
2019-04-24T13:26:39.319Z,26.75
2019-04-24T13:27:33.845Z,26.75
2019-04-24T13:28:36.953Z,26.69
2019-04-24T13:29:37.579Z,26.69
2019-04-24T13:30:22.680Z,26.75
2019-04-24T13:31:29.563Z,26.81
2019-04-24T13:32:34.629Z,26.88
2019-04-24T13:34:23.288Z,26.75
2019-04-24T13:35:30.660Z,26.75
2019-04-24T13:36:38.709Z,26.69
2019-04-24T13:37:38.492Z,26.62
2019-04-24T13:38:26.757Z,26.75
2019-04-24T13:40:29.081Z,26.81
2019-04-24T13:41:34.533Z,26.81
2019-04-24T13:42:22.768Z,26.88
2019-04-24T13:44:24.300Z,26.69
2019-04-24T13:46:24.760Z,26.69
2019-04-24T13:47:23.968Z,26.62
2019-04-24T13:48:39.518Z,26.62
2019-04-24T13:49:35.612Z,26.69
2019-04-24T13:50:23.641Z,26.62
2019-04-24T13:51:22.433Z,26.62
2019-04-24T13:53:10.252Z,26.69
2019-04-24T13:54:20.994Z,26.81
2019-04-24T13:55:33.126Z,26.88
2019-04-24T13:56:29.773Z,26.94
2019-04-24T13:59:34.719Z,27.06
2019-04-24T14:01:41.281Z,27.12
2019-04-24T14:02:58.467Z,27.06
2019-04-24T14:04:24.425Z,26.94
2019-04-24T14:05:48.072Z,26.94
2019-04-24T14:06:52.144Z,27.00
2019-04-24T14:07:25.795Z,27.00
2019-04-24T14:09:13.880Z,26.94
2019-04-24T14:09:37.287Z,26.94
2019-04-24T14:10:57.549Z,26.94
2019-04-24T14:13:44.073Z,26.94
2019-04-24T14:14:44.526Z,26.94
2019-04-24T14:15:30.924Z,26.94
2019-04-24T14:17:43.240Z,26.75
2019-04-24T14:18:32.230Z,26.69
2019-04-24T14:20:33.683Z,26.75
2019-04-24T14:21:22.306Z,26.69
2019-04-24T14:22:42.263Z,26.69
2019-04-24T14:23:38.772Z,26.69
2019-04-24T14:24:24.378Z,26.88
2019-04-24T14:25:37.122Z,26.94
2019-04-24T14:27:22.037Z,27.25
2019-04-24T14:28:34.792Z,27.06
2019-04-24T14:29:33.331Z,27.00
2019-04-24T14:31:31.826Z,27.00
2019-04-24T14:32:36.246Z,26.88
2019-04-24T14:33:33.654Z,26.81
2019-04-24T14:34:22.342Z,26.88
2019-04-24T14:35:42.147Z,26.75
2019-04-24T14:36:38.750Z,26.69
2019-04-24T14:37:22.551Z,26.75
2019-04-24T14:38:24.360Z,26.69
2019-04-24T14:39:23.038Z,26.62
2019-04-24T14:40:36.918Z,26.62
2019-04-24T14:41:34.698Z,26.62
2019-04-24T14:43:51.022Z,26.56
2019-04-24T14:44:37.184Z,26.56
2019-04-24T14:45:44.967Z,26.69
2019-04-24T14:46:49.150Z,26.56
2019-04-24T14:48:32.719Z,26.62
2019-04-24T14:50:39.461Z,26.50
2019-04-24T14:52:34.569Z,26.69
2019-04-24T14:53:37.461Z,26.75
2019-04-24T14:55:27.553Z,26.75
2019-04-24T14:56:34.074Z,26.69
2019-04-24T14:57:20.348Z,26.62
2019-04-24T14:58:32.558Z,26.62
2019-04-24T14:59:24.092Z,26.62
2019-04-24T15:01:21.003Z,26.38
2019-04-24T15:03:29.262Z,26.31
2019-04-24T15:04:36.442Z,26.19
2019-04-24T15:06:39.197Z,26.19
2019-04-24T15:07:35.866Z,26.12
2019-04-24T15:08:22.424Z,26.06
2019-04-24T15:09:21.338Z,26.12
2019-04-24T15:10:35.873Z,26.06
2019-04-24T15:11:43.951Z,26.12
2019-04-24T15:12:32.003Z,26.06
2019-04-24T15:13:27.611Z,26.06
2019-04-24T15:14:37.552Z,26.25
2019-04-24T15:15:24.419Z,26.31
2019-04-24T15:16:40.249Z,26.38
2019-04-24T15:17:35.715Z,26.50
2019-04-24T15:18:35.491Z,26.44
2019-04-24T15:20:18.310Z,26.44
2019-04-24T15:21:30.445Z,26.38
2019-04-24T15:22:35.609Z,26.31
2019-04-24T15:23:40.851Z,26.31
2019-04-24T15:26:24.036Z,26.06
2019-04-24T15:27:31.061Z,26.00
2019-04-24T15:28:18.800Z,26.06
2019-04-24T15:29:33.137Z,26.06
2019-04-24T15:30:35.595Z,26.25
2019-04-24T15:31:37.516Z,26.44
2019-04-24T15:32:24.674Z,26.62
2019-04-24T15:33:33.107Z,26.56
2019-04-24T15:35:33.944Z,26.69
2019-04-24T15:36:31.354Z,26.69
2019-04-24T15:37:25.921Z,26.62
2019-04-24T15:38:22.976Z,26.56
2019-04-24T15:39:35.844Z,26.50
2019-04-24T15:40:38.758Z,26.44
2019-04-24T15:41:40.226Z,26.44
2019-04-24T15:42:21.796Z,26.44
2019-04-24T15:43:20.558Z,26.38
2019-04-24T15:44:38.410Z,26.44
2019-04-24T15:45:36.863Z,26.31
2019-04-24T15:46:32.680Z,26.31
2019-04-24T15:47:41.339Z,26.38
2019-04-24T15:48:40.222Z,26.50
2019-04-24T15:50:39.633Z,26.56
2019-04-24T15:51:26.867Z,26.62
2019-04-24T15:52:06.075Z,26.81
2019-04-24T15:53:05.576Z,26.69
2019-04-24T15:54:05.184Z,26.69
2019-04-24T15:55:05.968Z,26.56
2019-04-24T15:56:05.220Z,26.44
2019-04-24T15:57:05.468Z,26.50
2019-04-24T15:58:11.807Z,26.50
2019-04-24T15:59:19.600Z,26.50
2019-04-24T16:00:37.699Z,26.50
2019-04-24T16:02:36.428Z,26.56
2019-04-24T16:03:37.287Z,26.62
2019-04-24T16:04:33.309Z,26.62
2019-04-24T16:05:05.477Z,26.62
2019-04-24T16:06:07.110Z,26.38
2019-04-24T16:07:07.075Z,26.25
2019-04-24T16:08:06.170Z,26.19
2019-04-24T16:09:06.155Z,26.06
2019-04-24T16:10:05.734Z,26.06
2019-04-24T16:11:05.953Z,26.12
2019-04-24T16:12:05.967Z,26.12
2019-04-24T16:13:07.551Z,26.12
2019-04-24T16:14:17.994Z,26.00
2019-04-24T16:15:40.207Z,25.94
2019-04-24T16:16:29.318Z,25.94
2019-04-24T16:17:32.232Z,25.94
2019-04-24T16:19:40.089Z,25.88
2019-04-24T16:20:34.543Z,25.81
2019-04-24T16:21:26.067Z,25.69
2019-04-24T16:22:28.296Z,25.75
2019-04-24T16:23:55.715Z,25.62
2019-04-24T16:26:30.064Z,25.75
2019-04-24T16:27:38.661Z,25.69
2019-04-24T16:28:30.550Z,25.75
2019-04-24T16:29:27.556Z,25.75
2019-04-24T16:30:28.797Z,25.69
2019-04-24T16:31:37.376Z,25.69
2019-04-24T16:32:39.412Z,25.75
2019-04-24T16:33:42.480Z,25.75
2019-04-24T16:34:27.543Z,25.62
2019-04-24T16:35:38.566Z,25.62
2019-04-24T16:37:27.902Z,25.56
2019-04-24T16:38:46.538Z,25.56
2019-04-24T16:39:19.849Z,25.56
2019-04-24T16:42:38.433Z,25.56
2019-04-24T16:43:39.511Z,25.56
2019-04-24T16:44:38.307Z,25.56
2019-04-24T16:45:35.530Z,25.38
2019-04-24T16:47:44.415Z,25.31
2019-04-24T16:48:35.341Z,25.31
2019-04-24T16:49:42.987Z,25.19
2019-04-24T16:50:52.540Z,25.12
2019-04-24T16:51:40.740Z,25.06
2019-04-24T16:52:30.852Z,25.00
2019-04-24T16:53:35.390Z,25.06
2019-04-24T16:54:32.826Z,25.19
2019-04-24T16:55:32.742Z,25.25
2019-04-24T16:57:28.490Z,25.19
2019-04-24T16:58:30.741Z,25.19
2019-04-24T16:59:21.213Z,25.12
2019-04-24T17:01:44.527Z,25.31
2019-04-24T17:02:24.219Z,25.19
2019-04-24T17:03:58.524Z,25.25
2019-04-24T17:04:38.346Z,25.19
2019-04-24T17:05:49.209Z,25.12
2019-04-24T17:06:46.806Z,25.12
2019-04-24T17:08:37.097Z,25.06
2019-04-24T17:09:33.804Z,25.00
2019-04-24T17:11:43.233Z,25.00
2019-04-24T17:12:43.419Z,24.88
2019-04-24T17:14:34.458Z,25.00
2019-04-24T17:15:27.331Z,24.88
2019-04-24T17:17:36.802Z,24.81
2019-04-24T17:18:36.041Z,24.75
2019-04-24T17:20:31.757Z,24.75
2019-04-24T17:22:36.633Z,24.75
2019-04-24T17:23:30.404Z,24.69
2019-04-24T17:24:22.061Z,24.62
2019-04-24T17:25:33.699Z,24.56
2019-04-24T17:26:24.882Z,24.50
2019-04-24T17:27:28.721Z,24.50
2019-04-24T17:28:32.560Z,24.38
2019-04-24T17:31:30.727Z,24.25
2019-04-24T17:33:29.315Z,24.12
2019-04-24T17:34:41.864Z,24.06
2019-04-24T17:35:35.717Z,24.19
2019-04-24T17:36:20.191Z,24.25
2019-04-24T17:37:05.579Z,24.19
2019-04-24T17:38:05.935Z,24.19
2019-04-24T17:39:05.742Z,24.12
2019-04-24T17:40:05.812Z,24.12
2019-04-24T17:41:06.578Z,24.12
2019-04-24T17:42:11.914Z,24.00
2019-04-24T17:43:28.811Z,23.94
2019-04-24T17:44:40.458Z,24.00
2019-04-24T17:45:34.399Z,23.94
2019-04-24T17:46:20.709Z,23.88
2019-04-24T17:48:26.919Z,24.00
2019-04-24T17:49:31.930Z,24.06
2019-04-24T17:50:41.899Z,24.00
2019-04-24T17:51:26.248Z,23.94
2019-04-24T17:54:24.446Z,23.88
2019-04-24T17:55:30.640Z,23.81
2019-04-24T17:56:38.686Z,23.81
2019-04-24T17:57:22.618Z,23.69
2019-04-24T17:59:06.067Z,23.69
2019-04-24T18:00:05.331Z,23.69
2019-04-24T18:01:06.094Z,23.62
2019-04-24T18:02:05.401Z,23.56
2019-04-24T18:03:10.606Z,23.56
2019-04-24T18:04:05.261Z,23.62
2019-04-24T18:05:06.542Z,23.62
2019-04-24T18:06:06.099Z,23.56
2019-04-24T18:07:06.125Z,23.50
2019-04-24T18:08:06.132Z,23.62
2019-04-24T18:09:06.200Z,23.69
2019-04-24T18:10:06.266Z,23.69
2019-04-24T18:11:05.936Z,23.56
2019-04-24T18:12:05.409Z,23.50
2019-04-24T18:13:06.642Z,23.50
2019-04-24T18:14:05.338Z,23.44